createdAt,value
2023-04-14T00:02:23.975Z,4.70
2023-04-14T00:04:54.504Z,4.30
2023-04-14T00:07:21.829Z,4.00
2023-04-14T00:09:49.050Z,4.87
2023-04-14T00:12:16.319Z,4.77
2023-04-14T00:14:43.701Z,5.00
2023-04-14T00:17:11.654Z,5.03
2023-04-14T00:19:38.923Z,5.20
2023-04-14T00:22:06.633Z,4.83
2023-04-14T00:24:40.646Z,5.03
2023-04-14T00:27:08.168Z,4.80
2023-04-14T00:29:35.637Z,5.00
2023-04-14T00:32:03.401Z,5.10
2023-04-14T00:34:32.757Z,4.83
2023-04-14T00:37:03.527Z,5.43
2023-04-14T00:39:31.442Z,4.67
2023-04-14T00:42:02.099Z,5.63
2023-04-14T00:44:30.765Z,5.40
2023-04-14T00:47:00.551Z,5.33
2023-04-14T00:49:28.184Z,6.33
2023-04-14T00:51:56.932Z,5.73
2023-04-14T00:54:25.126Z,5.37
2023-04-14T00:56:53.885Z,5.80
2023-04-14T00:59:22.128Z,5.20
2023-04-14T01:01:49.936Z,5.70
2023-04-14T01:04:20.873Z,5.50
2023-04-14T01:06:48.921Z,5.13
2023-04-14T01:09:16.321Z,5.80
2023-04-14T01:12:09.744Z,6.60
2023-04-14T01:14:50.322Z,6.50
2023-04-14T01:17:32.610Z,6.20
2023-04-14T01:20:16.175Z,5.97
2023-04-14T01:22:52.664Z,5.23
2023-04-14T01:25:31.943Z,5.90
2023-04-14T01:28:49.824Z,4.70
2023-04-14T01:31:32.469Z,6.87
2023-04-14T01:34:08.547Z,5.30
2023-04-14T01:36:47.844Z,5.90
2023-04-14T01:39:20.995Z,6.00
2023-04-14T01:41:58.223Z,5.57
2023-04-14T01:44:27.899Z,6.00
2023-04-14T01:47:02.196Z,5.77
2023-04-14T01:49:32.799Z,5.53
2023-04-14T01:52:02.763Z,4.73
2023-04-14T01:54:33.262Z,6.10
2023-04-14T01:57:02.986Z,5.53
2023-04-14T01:59:33.470Z,5.17
2023-04-14T02:02:03.693Z,5.60
2023-04-14T02:04:33.668Z,4.30
2023-04-14T02:07:02.558Z,4.40
2023-04-14T02:09:31.714Z,4.70
2023-04-14T02:12:00.816Z,4.70
2023-04-14T02:14:30.496Z,4.13
2023-04-14T02:17:00.544Z,4.10
2023-04-14T02:19:29.734Z,3.60
2023-04-14T02:21:57.505Z,3.77
2023-04-14T02:24:25.311Z,4.80
2023-04-14T02:27:10.381Z,5.87
2023-04-14T02:29:42.440Z,4.43
2023-04-14T02:32:17.279Z,3.80
2023-04-14T02:35:12.142Z,3.10
2023-04-14T02:37:42.212Z,2.87
2023-04-14T02:40:16.978Z,3.27
2023-04-14T02:42:48.419Z,3.37
2023-04-14T02:45:22.375Z,2.77
2023-04-14T02:47:57.789Z,3.50
2023-04-14T02:50:28.466Z,4.07
2023-04-14T02:53:12.997Z,3.23
2023-04-14T02:55:40.775Z,3.57
2023-04-14T02:58:08.839Z,3.63
2023-04-14T03:00:40.530Z,3.57
2023-04-14T03:03:10.119Z,3.33
2023-04-14T03:05:39.572Z,4.27
2023-04-14T03:08:12.204Z,5.23
2023-04-14T03:10:45.339Z,4.07
2023-04-14T03:13:15.138Z,4.10
2023-04-14T03:15:43.460Z,4.30
2023-04-14T03:18:12.932Z,4.40
2023-04-14T03:20:43.282Z,4.27
2023-04-14T03:23:12.318Z,4.37
2023-04-14T03:25:47.733Z,4.10
2023-04-14T03:28:25.270Z,4.57
2023-04-14T03:30:54.352Z,4.70
2023-04-14T03:33:27.401Z,4.20
2023-04-14T03:35:57.287Z,4.57
2023-04-14T03:38:27.922Z,4.70
2023-04-14T03:41:01.087Z,4.20
2023-04-14T03:43:31.364Z,5.00
2023-04-14T03:46:05.658Z,4.60
2023-04-14T03:48:36.775Z,4.10
2023-04-14T03:51:06.770Z,4.57
2023-04-14T03:53:35.338Z,4.00
2023-04-14T03:56:04.581Z,3.83
2023-04-14T03:58:34.130Z,4.73
2023-04-14T04:01:02.561Z,5.43
2023-04-14T04:03:30.463Z,4.10
2023-04-14T04:05:58.888Z,4.30
2023-04-14T04:08:27.263Z,4.57
2023-04-14T04:10:56.216Z,4.00
2023-04-14T04:13:24.876Z,4.50
2023-04-14T04:15:52.718Z,6.20
2023-04-14T04:18:24.296Z,5.17
2023-04-14T04:20:53.118Z,7.80
2023-04-14T04:23:22.438Z,6.47
2023-04-14T04:25:52.167Z,6.20
2023-04-14T04:28:30.711Z,6.40
2023-04-14T04:31:00.565Z,7.63
2023-04-14T04:33:31.348Z,8.30
2023-04-14T04:36:00.587Z,9.03
2023-04-14T04:38:34.144Z,7.80
2023-04-14T04:41:02.064Z,7.10
2023-04-14T04:43:30.758Z,7.63
2023-04-14T04:45:58.627Z,6.60
2023-04-14T04:48:27.272Z,7.10
2023-04-14T04:50:55.280Z,6.07
2023-04-14T04:53:22.693Z,6.70
2023-04-14T04:55:49.882Z,6.63
2023-04-14T04:58:17.582Z,7.67
2023-04-14T05:02:00.757Z,7.33
2023-04-14T05:04:28.280Z,6.00
2023-04-14T05:06:56.081Z,5.43
2023-04-14T05:09:23.771Z,6.10
2023-04-14T05:11:50.954Z,6.00
2023-04-14T05:14:18.161Z,6.10
2023-04-14T05:16:46.053Z,5.73
2023-04-14T05:19:13.452Z,6.40
2023-04-14T05:21:40.808Z,6.97
2023-04-14T05:24:09.187Z,7.13
2023-04-14T05:26:57.519Z,8.07
2023-04-14T05:29:23.690Z,7.67
2023-04-14T05:31:51.490Z,6.77
2023-04-14T05:34:18.685Z,6.30
2023-04-14T05:36:46.490Z,6.73
2023-04-14T05:39:13.863Z,5.97
2023-04-14T05:41:41.029Z,5.87
2023-04-14T05:44:08.441Z,5.70
2023-04-14T05:46:35.898Z,7.50
2023-04-14T05:49:04.790Z,6.30
2023-04-14T05:51:32.416Z,6.70
2023-04-14T05:53:59.843Z,6.10
2023-04-14T05:56:27.439Z,6.23
2023-04-14T05:58:55.807Z,7.13
2023-04-14T06:01:23.346Z,7.03
2023-04-14T06:03:51.872Z,10.03
2023-04-14T06:06:20.185Z,12.47
2023-04-14T06:08:47.421Z,12.50
2023-04-14T06:11:15.766Z,11.90
2023-04-14T06:13:42.913Z,11.90
2023-04-14T06:16:10.372Z,11.87
2023-04-14T06:18:37.587Z,12.60
2023-04-14T06:21:05.445Z,12.50
2023-04-14T06:23:32.715Z,12.90
2023-04-14T06:26:00.069Z,12.40
2023-04-14T06:28:27.308Z,13.13
2023-04-14T06:30:54.721Z,13.10
2023-04-14T06:33:21.942Z,12.53
2023-04-14T06:35:49.230Z,13.57
2023-04-14T06:38:16.418Z,12.73
2023-04-14T06:40:44.069Z,12.37
2023-04-14T06:43:11.533Z,15.30
2023-04-14T06:45:38.950Z,13.83
2023-04-14T06:48:07.827Z,12.47
2023-04-14T06:50:35.768Z,14.93
2023-04-14T06:53:03.065Z,20.40
2023-04-14T06:55:30.337Z,13.20
2023-04-14T06:57:57.488Z,15.50
2023-04-14T07:00:24.724Z,16.20
2023-04-14T07:03:10.388Z,12.43
2023-04-14T07:05:38.141Z,12.93
2023-04-14T07:08:05.767Z,11.00
2023-04-14T07:10:33.009Z,10.80
2023-04-14T07:13:01.572Z,11.07
2023-04-14T07:15:29.947Z,11.17
2023-04-14T07:17:59.753Z,10.57
2023-04-14T07:20:29.060Z,9.37
2023-04-14T07:22:56.535Z,8.40
2023-04-14T07:25:23.704Z,7.90
2023-04-14T07:28:02.706Z,6.57
2023-04-14T07:30:31.612Z,6.03
2023-04-14T07:33:01.441Z,5.93
2023-04-14T07:35:29.057Z,5.50
2023-04-14T07:37:56.794Z,4.50
2023-04-14T07:40:24.037Z,4.43
2023-04-14T07:42:51.938Z,4.20
2023-04-14T07:45:19.495Z,3.73
2023-04-14T07:47:47.088Z,4.67
2023-04-14T07:50:14.963Z,3.10
2023-04-14T07:52:42.145Z,3.53
2023-04-14T07:55:09.437Z,3.60
2023-04-14T07:57:36.689Z,3.70
2023-04-14T08:00:04.210Z,3.93
2023-04-14T08:02:40.059Z,2.70
2023-04-14T08:05:07.476Z,2.37
2023-04-14T08:07:34.792Z,2.90
2023-04-14T08:10:01.983Z,3.40
2023-04-14T08:12:29.170Z,3.90
2023-04-14T08:14:59.126Z,3.10
2023-04-14T08:17:27.149Z,2.90
2023-04-14T08:19:54.398Z,2.73
2023-04-14T08:22:22.056Z,3.27
2023-04-14T08:24:49.337Z,3.60
2023-04-14T08:27:16.566Z,3.83
2023-04-14T08:29:43.720Z,3.70
2023-04-14T08:32:10.932Z,3.50
2023-04-14T08:34:38.677Z,3.77
2023-04-14T08:37:06.284Z,3.50
2023-04-14T08:39:33.488Z,3.40
2023-04-14T08:42:00.910Z,4.10
2023-04-14T08:44:29.317Z,4.40
2023-04-14T08:46:57.572Z,4.40
2023-04-14T08:49:34.904Z,5.10
2023-04-14T08:52:03.974Z,4.57
2023-04-14T08:54:32.095Z,4.20
2023-04-14T08:57:00.359Z,4.27
2023-04-14T08:59:29.133Z,3.63
2023-04-14T09:01:57.232Z,3.80
2023-04-14T09:04:25.493Z,4.13
2023-04-14T09:06:53.692Z,3.90
2023-04-14T09:09:22.011Z,3.67
2023-04-14T09:11:50.555Z,3.80
2023-04-14T09:14:18.786Z,3.83
2023-04-14T09:16:48.816Z,3.77
2023-04-14T09:19:17.228Z,3.77
2023-04-14T09:21:53.830Z,3.17
2023-04-14T09:24:31.290Z,3.80
2023-04-14T09:27:06.954Z,3.60
2023-04-14T09:29:34.578Z,2.47
2023-04-14T09:32:02.514Z,2.50
2023-04-14T09:34:30.681Z,2.23
2023-04-14T09:37:02.399Z,2.00
2023-04-14T09:39:31.253Z,2.50
2023-04-14T09:41:59.782Z,1.53
2023-04-14T09:44:27.980Z,2.30
2023-04-14T09:46:58.346Z,1.77
2023-04-14T09:49:26.285Z,2.10
2023-04-14T09:51:55.311Z,2.03
2023-04-14T09:54:25.618Z,1.80
2023-04-14T09:56:54.037Z,1.77
2023-04-14T09:59:35.072Z,1.93
2023-04-14T10:02:09.472Z,1.33
2023-04-14T10:04:38.127Z,2.80
2023-04-14T10:07:08.016Z,1.50
2023-04-14T10:09:37.718Z,1.50
2023-04-14T10:12:13.194Z,1.40
2023-04-14T10:14:42.019Z,1.70
2023-04-14T10:17:09.785Z,1.50
2023-04-14T10:19:37.903Z,1.60
2023-04-14T10:22:08.700Z,1.33
2023-04-14T10:24:36.660Z,2.33
2023-04-14T10:27:04.734Z,1.50
2023-04-14T10:29:32.460Z,1.13
2023-04-14T10:32:13.941Z,1.40
2023-04-14T10:34:54.688Z,1.70
2023-04-14T10:37:22.252Z,1.30
2023-04-14T10:39:56.414Z,1.37
2023-04-14T10:42:24.850Z,1.87
2023-04-14T10:45:13.262Z,1.37
2023-04-14T10:47:41.420Z,1.50
2023-04-14T10:50:13.180Z,1.60
2023-04-14T10:52:49.600Z,1.40
2023-04-14T10:55:17.719Z,1.90
2023-04-14T10:57:46.867Z,1.67
2023-04-14T11:00:20.955Z,1.30
2023-04-14T11:03:15.147Z,1.17
2023-04-14T11:05:44.309Z,0.80
2023-04-14T11:08:27.755Z,1.30
2023-04-14T11:11:05.334Z,1.17
2023-04-14T11:13:34.157Z,1.37
2023-04-14T11:16:01.668Z,1.00
2023-04-14T11:18:29.753Z,1.33
2023-04-14T11:21:04.623Z,1.30
2023-04-14T11:23:32.498Z,1.30
2023-04-14T11:26:00.494Z,1.37
2023-04-14T11:28:32.993Z,1.00
2023-04-14T11:31:01.364Z,1.30
2023-04-14T11:33:32.270Z,1.10
2023-04-14T11:36:00.607Z,1.10
2023-04-14T11:38:28.610Z,1.00
2023-04-14T11:40:56.781Z,1.40
2023-04-14T11:43:24.973Z,1.30
2023-04-14T11:45:53.034Z,0.90
2023-04-14T11:48:21.576Z,1.47
2023-04-14T11:50:49.238Z,1.03
2023-04-14T11:53:18.010Z,1.40
2023-04-14T11:55:46.668Z,1.40
2023-04-14T11:58:15.282Z,1.20
2023-04-14T12:00:43.897Z,1.10
2023-04-14T12:03:11.634Z,1.10
2023-04-14T12:05:39.461Z,1.40
2023-04-14T12:08:08.701Z,1.30
2023-04-14T12:10:37.471Z,1.40
2023-04-14T12:13:06.718Z,1.30
2023-04-14T12:15:36.840Z,1.20
2023-04-14T12:18:08.684Z,1.20
2023-04-14T12:20:42.909Z,1.53
2023-04-14T12:23:10.705Z,1.43
2023-04-14T12:25:38.310Z,1.00
2023-04-14T12:28:06.677Z,1.10
2023-04-14T12:30:34.830Z,1.13
2023-04-14T12:33:12.514Z,1.10
2023-04-14T12:35:40.841Z,1.30
2023-04-14T12:38:15.027Z,1.10
2023-04-14T12:40:44.580Z,1.10
2023-04-14T12:43:13.347Z,1.00
2023-04-14T12:45:44.191Z,1.07
2023-04-14T12:48:13.064Z,1.10
2023-04-14T12:50:41.001Z,1.40
2023-04-14T12:53:23.785Z,1.50
2023-04-14T12:56:05.820Z,1.80
2023-04-14T12:58:33.688Z,1.73
2023-04-14T13:01:01.282Z,1.40
2023-04-14T13:03:41.077Z,1.30
2023-04-14T13:06:08.997Z,1.30
2023-04-14T13:08:36.621Z,1.40
2023-04-14T13:11:04.202Z,1.30
2023-04-14T13:13:31.805Z,1.43
2023-04-14T13:16:14.893Z,1.73
2023-04-14T13:18:44.004Z,2.07
2023-04-14T13:21:12.433Z,1.80
2023-04-14T13:23:41.178Z,2.10
2023-04-14T13:26:08.723Z,1.50
2023-04-14T13:28:36.773Z,2.00
2023-04-14T13:31:05.368Z,1.97
2023-04-14T13:33:33.347Z,2.27
2023-04-14T13:36:02.606Z,2.23
2023-04-14T13:38:31.544Z,2.33
2023-04-14T13:41:25.794Z,2.17
2023-04-14T13:43:53.432Z,2.53
2023-04-14T13:46:21.198Z,2.47
2023-04-14T13:48:49.012Z,2.00
2023-04-14T13:51:16.782Z,2.23
2023-04-14T13:53:46.915Z,2.40
2023-04-14T13:56:14.961Z,2.17
2023-04-14T13:58:43.159Z,2.20
2023-04-14T14:01:11.339Z,2.20
2023-04-14T14:03:40.043Z,2.50
2023-04-14T14:06:07.953Z,2.43
2023-04-14T14:08:38.924Z,2.20
2023-04-14T14:11:06.796Z,3.10
2023-04-14T14:13:38.610Z,2.37
2023-04-14T14:16:07.146Z,2.37
2023-04-14T14:18:37.712Z,2.60
2023-04-14T14:21:05.856Z,2.33
2023-04-14T14:23:34.025Z,2.70
2023-04-14T14:26:01.528Z,2.30
2023-04-14T14:28:29.048Z,2.37
2023-04-14T14:30:56.634Z,2.30
2023-04-14T14:33:24.140Z,2.30
2023-04-14T14:35:52.063Z,2.10
2023-04-14T14:38:19.611Z,2.60
2023-04-14T14:40:47.142Z,1.77
2023-04-14T14:43:14.642Z,1.80
2023-04-14T14:45:42.393Z,2.07
2023-04-14T14:48:37.591Z,1.90
2023-04-14T14:51:05.498Z,2.27
2023-04-14T14:53:33.127Z,2.30
2023-04-14T14:56:01.961Z,2.50
2023-04-14T14:58:29.575Z,1.80
2023-04-14T15:00:57.097Z,1.77
2023-04-14T15:03:24.995Z,2.00
2023-04-14T15:05:53.664Z,2.00
2023-04-14T15:08:21.840Z,2.53
2023-04-14T15:10:50.801Z,2.30
2023-04-14T15:13:18.594Z,2.20
2023-04-14T15:15:46.206Z,2.20
2023-04-14T15:18:13.912Z,1.67
2023-04-14T15:20:42.528Z,1.60
2023-04-14T15:23:10.777Z,1.43
2023-04-14T15:25:38.721Z,1.37
2023-04-14T15:28:06.213Z,1.43
2023-04-14T15:30:34.453Z,1.50
2023-04-14T15:33:02.119Z,1.60
2023-04-14T15:35:29.942Z,1.40
2023-04-14T15:37:57.709Z,1.40
2023-04-14T15:40:25.244Z,1.57
2023-04-14T15:42:53.350Z,1.93
2023-04-14T15:45:22.028Z,1.67
2023-04-14T15:47:51.691Z,1.50
2023-04-14T15:50:19.461Z,1.67
2023-04-14T15:52:47.714Z,1.50
2023-04-14T15:55:15.383Z,1.40
2023-04-14T15:57:42.952Z,1.80
2023-04-14T16:00:10.892Z,2.27
2023-04-14T16:02:46.218Z,2.37
2023-04-14T16:05:14.747Z,2.20
2023-04-14T16:07:43.607Z,2.37
2023-04-14T16:10:11.104Z,2.43
2023-04-14T16:12:38.590Z,2.13
2023-04-14T16:15:09.229Z,2.40
2023-04-14T16:17:37.907Z,2.43
2023-04-14T16:20:06.999Z,2.30
2023-04-14T16:22:39.902Z,2.60
2023-04-14T16:25:10.276Z,2.33
2023-04-14T16:27:39.221Z,2.10
2023-04-14T16:30:08.279Z,3.03
2023-04-14T16:32:36.331Z,3.10
2023-04-14T16:35:06.697Z,2.70
2023-04-14T16:37:34.449Z,2.70
2023-04-14T16:40:02.661Z,2.80
2023-04-14T16:42:30.200Z,2.50
2023-04-14T16:44:57.312Z,2.70
2023-04-14T16:47:24.533Z,2.97
2023-04-14T16:49:52.792Z,2.50
2023-04-14T16:52:20.751Z,3.00
2023-04-14T16:54:48.456Z,2.87
2023-04-14T16:57:15.759Z,2.63
2023-04-14T16:59:44.935Z,2.57
2023-04-14T17:02:12.358Z,2.50
2023-04-14T17:04:42.835Z,2.60
2023-04-14T17:07:10.300Z,2.43
2023-04-14T17:09:37.705Z,2.70
2023-04-14T17:12:05.066Z,2.80
2023-04-14T17:14:32.544Z,2.70
2023-04-14T17:17:00.428Z,2.70
2023-04-14T17:19:28.299Z,2.70
2023-04-14T17:21:55.714Z,2.73
2023-04-14T17:24:23.156Z,2.53
2023-04-14T17:26:51.006Z,2.40
2023-04-14T17:29:18.230Z,2.60
2023-04-14T17:31:46.009Z,2.87
2023-04-14T17:34:13.528Z,2.67
2023-04-14T17:36:40.874Z,2.50
2023-04-14T17:39:10.246Z,1.90
2023-04-14T17:41:38.459Z,1.70
2023-04-14T17:44:05.783Z,2.40
2023-04-14T17:46:33.730Z,1.90
2023-04-14T17:49:01.982Z,1.70
2023-04-14T17:51:30.850Z,1.60
2023-04-14T17:53:58.679Z,1.60
2023-04-14T17:56:27.076Z,1.40
2023-04-14T17:58:54.316Z,1.40
2023-04-14T18:01:23.902Z,1.87
2023-04-14T18:03:51.273Z,1.10
2023-04-14T18:06:20.106Z,1.23
2023-04-14T18:08:47.952Z,1.30
2023-04-14T18:11:15.541Z,1.33
2023-04-14T18:13:43.500Z,1.43
2023-04-14T18:16:11.594Z,1.87
2023-04-14T18:18:38.973Z,2.13
2023-04-14T18:21:07.871Z,2.40
2023-04-14T18:23:35.276Z,2.30
2023-04-14T18:28:33.322Z,2.10
2023-04-14T18:31:01.052Z,2.27
2023-04-14T18:33:29.725Z,2.50
2023-04-14T18:35:58.623Z,2.20
2023-04-14T18:38:26.418Z,2.90
2023-04-14T18:40:53.840Z,2.50
2023-04-14T18:43:21.195Z,2.80
2023-04-14T18:45:49.024Z,2.63
2023-04-14T18:48:17.088Z,2.40
2023-04-14T18:50:45.191Z,2.43
2023-04-14T18:53:13.168Z,2.60
2023-04-14T18:55:45.062Z,2.57
2023-04-14T18:58:13.630Z,3.87
2023-04-14T19:00:45.158Z,3.90
2023-04-14T19:03:12.663Z,4.10
2023-04-14T19:05:40.070Z,3.97
2023-04-14T19:08:07.681Z,4.60
2023-04-14T19:10:36.220Z,5.30
2023-04-14T19:13:03.502Z,4.90
2023-04-14T19:15:30.913Z,5.20
2023-04-14T19:17:58.286Z,5.67
2023-04-14T19:20:26.583Z,6.10
2023-04-14T19:22:54.054Z,6.70
2023-04-14T19:25:22.231Z,5.47
2023-04-14T19:27:49.642Z,7.60
2023-04-14T19:30:18.317Z,6.80
2023-04-14T19:32:46.747Z,6.30
2023-04-14T19:35:14.120Z,6.70
2023-04-14T19:37:41.986Z,7.03
2023-04-14T19:40:10.841Z,6.70
2023-04-14T19:42:38.314Z,6.93
2023-04-14T19:45:07.732Z,6.43
2023-04-14T19:47:35.259Z,6.60
2023-04-14T19:50:04.208Z,7.60
2023-04-14T19:52:31.775Z,9.20
2023-04-14T19:54:59.134Z,6.90
2023-04-14T19:57:27.410Z,6.83
2023-04-14T19:59:55.086Z,7.17
2023-04-14T20:02:25.346Z,6.43
2023-04-14T20:04:56.711Z,7.80
2023-04-14T20:07:24.409Z,6.60
2023-04-14T20:09:52.788Z,7.93
2023-04-14T20:12:20.472Z,6.90
2023-04-14T20:14:47.768Z,6.50
2023-04-14T20:17:15.720Z,7.23
2023-04-14T20:19:44.451Z,7.37
2023-04-14T20:22:13.336Z,7.87
2023-04-14T20:24:41.017Z,7.10
2023-04-14T20:27:08.827Z,7.20
2023-04-14T20:29:36.152Z,8.00
2023-04-14T20:32:04.141Z,8.40
2023-04-14T20:34:31.524Z,9.67
2023-04-14T20:36:58.957Z,9.20
2023-04-14T20:39:26.836Z,8.33
2023-04-14T20:41:54.019Z,10.00
2023-04-14T20:44:21.398Z,9.60
2023-04-14T20:46:48.636Z,9.00
2023-04-14T20:49:16.552Z,9.37
2023-04-14T20:51:46.609Z,9.10
2023-04-14T20:54:13.856Z,9.60
2023-04-14T20:56:42.056Z,8.93
2023-04-14T20:59:10.143Z,9.13
2023-04-14T21:01:38.645Z,9.73
2023-04-14T21:04:05.939Z,9.50
2023-04-14T21:06:33.694Z,9.43
2023-04-14T21:09:01.303Z,8.90
2023-04-14T21:11:28.804Z,9.97
2023-04-14T21:15:36.895Z,8.63
2023-04-14T21:16:43.372Z,8.57
2023-04-14T21:19:11.161Z,9.40
2023-04-14T21:21:38.917Z,8.80
2023-04-14T21:24:06.799Z,8.30
2023-04-14T21:26:34.266Z,8.50
2023-04-14T21:29:01.748Z,9.10
2023-04-14T21:31:29.245Z,8.83
2023-04-14T21:33:56.827Z,9.90
2023-04-14T21:36:24.418Z,7.50
2023-04-14T21:38:51.591Z,8.17
2023-04-14T21:41:21.226Z,7.57
2023-04-14T21:43:48.497Z,7.00
2023-04-14T21:46:16.011Z,6.63
2023-04-14T21:48:43.919Z,6.33
2023-04-14T21:51:11.633Z,7.40
2023-04-14T21:53:38.982Z,7.60
2023-04-14T21:56:10.228Z,7.27
2023-04-14T21:58:41.979Z,9.07
2023-04-14T22:01:12.323Z,6.73
2023-04-14T22:03:40.976Z,6.33
2023-04-14T22:06:11.139Z,7.30
2023-04-14T22:08:39.688Z,6.83
2023-04-14T22:11:07.290Z,7.00
2023-04-14T22:13:35.137Z,6.00
2023-04-14T22:16:02.394Z,6.20
2023-04-14T22:18:31.041Z,6.53
2023-04-14T22:20:58.789Z,6.10
2023-04-14T22:23:27.408Z,5.60
2023-04-14T22:25:54.587Z,5.50
2023-04-14T22:28:22.112Z,6.20
2023-04-14T22:30:49.552Z,7.10
2023-04-14T22:33:16.734Z,6.40
2023-04-14T22:35:43.905Z,6.70
2023-04-14T22:38:11.359Z,6.43
2023-04-14T22:40:38.551Z,6.50
2023-04-14T22:43:08.763Z,6.40
2023-04-14T22:45:37.544Z,6.17
2023-04-14T22:48:05.488Z,6.97
2023-04-14T22:50:33.734Z,7.03
2023-04-14T22:53:01.818Z,7.27
2023-04-14T22:55:29.358Z,7.50
2023-04-14T22:57:56.585Z,7.90
2023-04-14T23:00:23.986Z,7.10
2023-04-14T23:02:52.220Z,6.83
2023-04-14T23:05:20.514Z,7.23
2023-04-14T23:07:48.178Z,7.80
2023-04-14T23:10:15.899Z,6.33
2023-04-14T23:12:43.438Z,6.70
2023-04-14T23:15:10.638Z,6.77
2023-04-14T23:17:37.819Z,7.27
2023-04-14T23:20:05.476Z,7.53
2023-04-14T23:22:32.825Z,7.10
2023-04-14T23:25:00.006Z,7.20
2023-04-14T23:27:28.101Z,7.30
2023-04-14T23:29:55.343Z,7.43
2023-04-14T23:32:22.504Z,6.30
2023-04-14T23:34:49.798Z,6.60
2023-04-14T23:37:18.297Z,6.47
2023-04-14T23:39:46.861Z,5.90
2023-04-14T23:42:14.514Z,6.27
2023-04-14T23:44:41.962Z,5.67
2023-04-14T23:47:09.221Z,6.80
2023-04-14T23:49:36.449Z,7.00
2023-04-14T23:52:04.433Z,7.80
2023-04-14T23:54:31.762Z,7.17
2023-04-14T23:56:59.313Z,7.73
2023-04-14T23:59:26.986Z,6.93
